createdAt,value
2022-09-30T00:00:39.455Z,7.24
2022-09-30T00:05:42.396Z,7.30
2022-09-30T00:10:46.668Z,7.27
2022-09-30T00:15:49.671Z,7.06
2022-09-30T00:20:53.173Z,7.24
2022-09-30T00:26:01.480Z,7.34
2022-09-30T00:31:07.388Z,7.37
2022-09-30T00:36:10.814Z,7.24
2022-09-30T00:41:15.145Z,7.29
2022-09-30T00:46:22.545Z,7.29
2022-09-30T00:51:31.797Z,7.17
2022-09-30T00:56:40.309Z,7.28
2022-09-30T01:01:43.565Z,7.24
2022-09-30T01:06:46.741Z,7.27
2022-09-30T01:11:51.097Z,7.17
2022-09-30T01:17:03.074Z,7.22
2022-09-30T01:22:30.074Z,7.12
2022-09-30T01:27:52.782Z,7.26
2022-09-30T01:33:29.154Z,7.17
2022-09-30T01:38:45.447Z,7.20
2022-09-30T01:43:57.847Z,7.20
2022-09-30T01:49:10.578Z,7.27
2022-09-30T01:54:20.371Z,7.21
2022-09-30T01:59:28.470Z,7.17
2022-09-30T02:04:40.378Z,7.18
2022-09-30T02:09:49.310Z,7.09
2022-09-30T02:14:58.057Z,7.06
2022-09-30T02:20:06.991Z,7.06
2022-09-30T02:25:13.021Z,6.95
2022-09-30T02:30:17.040Z,7.06
2022-09-30T02:35:27.764Z,7.13
2022-09-30T02:40:36.580Z,7.16
2022-09-30T02:45:47.606Z,7.14
2022-09-30T02:50:55.760Z,7.10
2022-09-30T02:56:13.272Z,7.07
2022-09-30T03:01:17.947Z,7.03
2022-09-30T03:06:23.097Z,6.93
2022-09-30T03:11:29.319Z,6.92
2022-09-30T03:16:50.062Z,6.98
2022-09-30T03:22:15.284Z,7.00
2022-09-30T03:27:30.269Z,6.77
2022-09-30T03:32:50.254Z,6.65
2022-09-30T03:38:02.504Z,6.83
2022-09-30T03:43:10.831Z,6.78
2022-09-30T03:48:15.423Z,6.90
2022-09-30T03:53:20.276Z,6.88
2022-09-30T03:58:24.474Z,6.89
2022-09-30T04:03:27.871Z,6.86
2022-09-30T04:08:33.991Z,6.80
2022-09-30T04:13:37.065Z,6.62
2022-09-30T04:18:40.737Z,6.67
2022-09-30T04:23:45.043Z,6.66
2022-09-30T04:28:48.020Z,6.78
2022-09-30T04:33:51.488Z,6.66
2022-09-30T04:38:55.754Z,6.58
2022-09-30T04:43:59.061Z,6.53
2022-09-30T04:49:04.581Z,6.45
2022-09-30T04:54:10.942Z,6.37
2022-09-30T04:59:14.200Z,6.30
2022-09-30T05:04:17.707Z,6.20
2022-09-30T05:09:22.073Z,6.13
2022-09-30T05:14:25.108Z,6.10
2022-09-30T05:19:28.208Z,6.04
2022-09-30T05:24:32.483Z,6.06
2022-09-30T05:29:35.426Z,6.04
2022-09-30T05:34:39.108Z,6.03
2022-09-30T05:39:43.448Z,6.13
2022-09-30T05:44:46.442Z,6.20
2022-09-30T05:49:55.328Z,6.26
2022-09-30T05:55:01.139Z,6.32
2022-09-30T06:00:05.496Z,6.29
2022-09-30T06:05:28.479Z,6.49
2022-09-30T06:10:32.768Z,6.21
2022-09-30T06:15:36.961Z,6.18
2022-09-30T06:20:40.009Z,6.61
2022-09-30T06:25:44.690Z,6.88
2022-09-30T06:30:49.135Z,6.86
2022-09-30T06:35:52.048Z,7.19
2022-09-30T06:40:56.694Z,7.23
2022-09-30T06:46:12.695Z,6.89
2022-09-30T06:51:17.088Z,6.98
2022-09-30T06:56:21.484Z,7.54
2022-09-30T07:01:24.893Z,7.95
2022-09-30T07:06:27.866Z,8.18
2022-09-30T07:11:32.201Z,8.73
2022-09-30T07:16:35.430Z,8.73
2022-09-30T07:21:38.382Z,8.88
2022-09-30T07:26:45.132Z,9.26
2022-09-30T07:31:48.106Z,9.34
2022-09-30T07:36:51.075Z,9.61
2022-09-30T07:41:55.413Z,9.80
2022-09-30T07:46:59.270Z,10.31
2022-09-30T07:52:02.972Z,10.30
2022-09-30T07:57:10.581Z,10.05
2022-09-30T08:02:17.014Z,10.75
2022-09-30T08:07:20.908Z,10.80
2022-09-30T08:12:25.185Z,11.18
2022-09-30T08:17:28.165Z,11.82
2022-09-30T08:22:31.088Z,12.35
2022-09-30T08:27:35.413Z,12.84
2022-09-30T08:32:38.326Z,13.42
2022-09-30T08:37:41.255Z,13.78
2022-09-30T08:42:59.070Z,13.14
2022-09-30T08:48:13.723Z,13.18
2022-09-30T08:53:24.045Z,12.49
2022-09-30T08:58:30.669Z,12.37
2022-09-30T09:03:34.959Z,12.68
2022-09-30T09:08:54.461Z,13.65
2022-09-30T09:14:03.738Z,13.38
2022-09-30T09:19:10.860Z,13.60
2022-09-30T09:24:17.257Z,13.94
2022-09-30T09:29:39.805Z,14.70
2022-09-30T09:34:42.863Z,13.42
2022-09-30T09:40:03.619Z,13.52
2022-09-30T09:45:17.603Z,12.69
2022-09-30T09:50:25.031Z,13.74
2022-09-30T09:55:27.999Z,13.81
2022-09-30T10:00:50.101Z,14.57
2022-09-30T10:06:06.070Z,14.24
2022-09-30T10:11:21.580Z,14.16
2022-09-30T10:16:32.045Z,14.71
2022-09-30T10:21:34.965Z,14.85
2022-09-30T10:26:48.656Z,14.28
2022-09-30T10:31:58.963Z,14.15
2022-09-30T10:37:08.685Z,15.35
2022-09-30T10:42:23.603Z,15.55
2022-09-30T10:47:36.282Z,14.18
2022-09-30T10:52:47.728Z,14.88
2022-09-30T10:57:53.543Z,15.39
2022-09-30T11:03:02.076Z,15.95
2022-09-30T11:08:10.436Z,15.18
2022-09-30T11:13:21.495Z,15.16
2022-09-30T11:18:32.136Z,15.46
2022-09-30T11:23:40.065Z,15.10
2022-09-30T11:29:01.327Z,14.87
2022-09-30T11:34:21.468Z,13.99
2022-09-30T11:39:37.394Z,14.34
2022-09-30T11:44:44.333Z,14.77
2022-09-30T11:50:17.394Z,14.72
2022-09-30T11:55:39.672Z,14.89
2022-09-30T12:00:47.363Z,15.75
2022-09-30T12:05:56.159Z,15.73
2022-09-30T12:11:04.032Z,15.88
2022-09-30T12:16:14.603Z,15.78
2022-09-30T12:21:23.670Z,16.20
2022-09-30T12:26:27.087Z,15.78
2022-09-30T12:31:52.695Z,15.59
2022-09-30T12:37:19.951Z,15.72
2022-09-30T12:42:41.116Z,15.74
2022-09-30T12:47:49.806Z,15.76
2022-09-30T12:52:54.156Z,16.35
2022-09-30T12:57:58.180Z,17.10
2022-09-30T13:03:07.060Z,16.34
2022-09-30T13:08:25.935Z,15.61
2022-09-30T13:13:32.279Z,16.12
2022-09-30T13:19:01.230Z,15.88
2022-09-30T13:24:05.693Z,15.31
2022-09-30T13:29:48.488Z,15.82
2022-09-30T13:34:58.591Z,15.95
2022-09-30T13:40:04.940Z,16.43
2022-09-30T13:45:16.320Z,16.57
2022-09-30T13:50:22.341Z,16.49
2022-09-30T13:55:32.892Z,16.10
2022-09-30T14:00:51.625Z,15.90
2022-09-30T14:06:03.993Z,16.20
2022-09-30T14:11:18.196Z,16.16
2022-09-30T14:16:49.676Z,15.88
2022-09-30T14:21:55.510Z,15.91
2022-09-30T14:27:11.219Z,16.00
2022-09-30T14:32:18.980Z,15.92
2022-09-30T14:37:30.092Z,15.67
2022-09-30T14:42:40.011Z,15.62
2022-09-30T14:47:48.452Z,15.58
2022-09-30T14:52:58.620Z,15.30
2022-09-30T14:58:28.471Z,15.01
2022-09-30T15:03:33.839Z,14.74
2022-09-30T15:08:36.825Z,14.88
2022-09-30T15:13:41.620Z,14.96
2022-09-30T15:18:47.192Z,14.86
2022-09-30T15:23:52.687Z,14.83
2022-09-30T15:28:57.337Z,14.72
2022-09-30T15:34:06.242Z,14.72
2022-09-30T15:39:21.281Z,14.48
2022-09-30T15:44:39.822Z,14.73
2022-09-30T15:49:49.745Z,14.62
2022-09-30T15:54:52.723Z,14.67
2022-09-30T16:00:03.439Z,14.51
2022-09-30T16:05:27.241Z,14.39
2022-09-30T16:10:30.446Z,14.16
2022-09-30T16:15:41.295Z,13.68
2022-09-30T16:20:57.243Z,13.61
2022-09-30T16:26:24.298Z,13.05
2022-09-30T16:31:28.703Z,12.87
2022-09-30T16:36:33.793Z,12.50
2022-09-30T16:41:38.311Z,12.44
2022-09-30T16:46:45.264Z,12.16
2022-09-30T16:51:48.245Z,11.96
2022-09-30T16:56:51.218Z,11.89
2022-09-30T17:01:55.599Z,11.66
2022-09-30T17:06:59.098Z,11.84
2022-09-30T17:12:02.541Z,11.64
2022-09-30T17:17:10.923Z,11.31
2022-09-30T17:22:16.070Z,11.33
2022-09-30T17:27:19.025Z,11.38
2022-09-30T17:32:23.350Z,11.16
2022-09-30T17:37:27.141Z,10.76
2022-09-30T17:42:47.770Z,11.04
2022-09-30T17:47:52.068Z,11.10
2022-09-30T17:52:55.955Z,10.97
2022-09-30T17:57:58.894Z,10.97
2022-09-30T18:03:03.376Z,11.06
2022-09-30T18:08:06.568Z,11.05
2022-09-30T18:13:09.534Z,11.06
2022-09-30T18:18:14.249Z,11.17
2022-09-30T18:23:19.520Z,11.26
2022-09-30T18:28:22.550Z,11.08
2022-09-30T18:33:26.948Z,10.61
2022-09-30T18:38:29.935Z,10.46
2022-09-30T18:43:32.870Z,10.71
2022-09-30T18:48:37.195Z,10.50
2022-09-30T18:53:40.193Z,10.48
2022-09-30T18:58:43.125Z,10.35
2022-09-30T19:03:47.487Z,10.12
2022-09-30T19:08:50.561Z,9.94
2022-09-30T19:13:56.480Z,9.47
2022-09-30T19:19:04.535Z,9.62
2022-09-30T19:24:09.597Z,9.39
2022-09-30T19:29:12.623Z,9.34
2022-09-30T19:34:29.994Z,9.12
2022-09-30T19:39:44.828Z,9.14
2022-09-30T19:44:48.661Z,9.01
2022-09-30T19:49:53.058Z,8.98
2022-09-30T19:55:05.007Z,8.88
2022-09-30T20:00:12.970Z,8.76
2022-09-30T20:05:18.428Z,8.65
2022-09-30T20:10:21.478Z,8.58
2022-09-30T20:15:46.020Z,8.53
2022-09-30T20:20:50.717Z,8.48
2022-09-30T20:25:54.543Z,8.45
2022-09-30T20:30:57.460Z,8.23
2022-09-30T20:36:02.540Z,8.28
2022-09-30T20:41:05.906Z,7.97
2022-09-30T20:46:08.956Z,8.00
2022-09-30T20:51:15.341Z,8.05
2022-09-30T20:56:19.822Z,8.12
2022-09-30T21:01:24.381Z,8.05
2022-09-30T21:06:29.875Z,7.94
2022-09-30T21:11:33.221Z,8.10
2022-09-30T21:16:36.482Z,8.38
2022-09-30T21:21:40.796Z,8.49
2022-09-30T21:26:43.767Z,8.48
2022-09-30T21:31:46.740Z,8.41
2022-09-30T21:36:51.098Z,8.48
2022-09-30T21:41:55.220Z,8.48
2022-09-30T21:46:58.465Z,8.44
2022-09-30T21:52:07.693Z,8.38
2022-09-30T21:57:10.638Z,8.27
2022-09-30T22:02:13.931Z,8.36
2022-09-30T22:07:18.447Z,8.39
2022-09-30T22:12:22.283Z,8.44
2022-09-30T22:17:25.240Z,8.46
2022-09-30T22:22:29.552Z,8.39
2022-09-30T22:27:32.843Z,7.88
2022-09-30T22:32:35.800Z,8.16
2022-09-30T22:37:57.285Z,8.35
2022-09-30T22:43:00.189Z,8.45
2022-09-30T22:48:03.328Z,8.52
2022-09-30T22:53:07.686Z,8.42
2022-09-30T22:58:10.606Z,8.38
2022-09-30T23:03:13.565Z,8.47
2022-09-30T23:08:17.964Z,8.44
2022-09-30T23:13:21.347Z,8.30
2022-09-30T23:18:24.364Z,7.49
2022-09-30T23:23:30.683Z,7.46
2022-09-30T23:28:33.930Z,7.40
2022-09-30T23:33:37.493Z,7.44
2022-09-30T23:38:41.746Z,7.39
2022-09-30T23:43:48.204Z,7.63
2022-09-30T23:48:51.161Z,7.70
2022-09-30T23:53:55.874Z,7.75
2022-09-30T23:58:58.973Z,7.67
